Terminal Aerodrome Forecast
Issued by NWS

Home | Current Version | Previous Version | Text Only | Print | Product List | Glossary On
Versions: 1 2 3 4 5 6 7 8 9 10 11 12 13 14 15 16 17 18 19 20 21 22 23 24 25 26 27 28 29 30 31 32 33 34 35 36 37 38 39 40 41 42 43 44 45 46 47 48 49 50
000
FTUS43 KMKX 222320
TAFUES
TAF
KUES 222320Z 2300/2324 20012G20KT P6SM FEW150
     FM230200 21011KT P6SM SCT120
     FM230600 25008KT P6SM SCT120
     FM231200 02012KT 6SM BR BKN008 OVC015
     FM231400 02011KT 5SM BR SCT004 OVC015
     FM231600 02013KT P6SM SCT015 OVC045=

USA.gov is the U.S. government's official web portal to all federal, state and local government web resources and services.